Souda — SVBH5 — position and weather

sailwx.info

Track history (hours):
 
Tides and Currents Weather Stations Pressure Air Temp Water Temp Dewpoint Dewpoint Depression Visibility Wind Speed Wind Dir Waves Ship Positions

Souda

Last reported at 2015-Jan-25 07:20 UTC. Time now 2015-Jan-26 08:26 UTC.
Position N 37°24' E 023°29'.

Length 88 m; draft 6.6 m.

Type: Tanker. MMSI: 241109000.

Date/timePositionNaut miles runAvg speedWind from/ knotsBaromVisibWave heightAir tempDewpointWater temp
2015-Jan-25 07:20N 37°24' E 023°29'1 0.0
2015-Jan-23 11:33N 37°24' E 023°28'8 7.8
2015-Jan-23 10:33N 37°25' E 023°37'7 6.5
2015-Jan-23 09:30N 37°32' E 023°41'7 7.5
2015-Jan-23 08:33N 37°38' E 023°38'8 7.6
2015-Jan-23 07:34N 37°46' E 023°36'7 6.9
2015-Jan-23 06:33N 37°48' E 023°28'0 0.2
2015-Jan-23 05:33N 37°48' E 023°28'0 0.0
2015-Jan-23 04:34N 37°48' E 023°28'0 0.0
2015-Jan-23 03:33N 37°48' E 023°28'0 0.0
2015-Jan-23 02:33N 37°48' E 023°28'0 0.0
2015-Jan-23 01:33N 37°48' E 023°28'0 0.0
2015-Jan-23 00:34N 37°48' E 023°28'0 0.0
2015-Jan-22 23:34N 37°48' E 023°28'3 3.4
2015-Jan-22 22:33N 37°48' E 023°32'3 3.1
2015-Jan-22 21:34N 37°50' E 023°29'8 8.0
2015-Jan-22 20:34N 37°51' E 023°19'4 0.1
2015-Jan-21 07:33N 37°51' E 023°23'9 8.8
2015-Jan-21 06:33N 37°52' E 023°34'6 5.5
2015-Jan-21 05:32N 37°57' E 023°35'0 0.0
2015-Jan-21 04:32N 37°57' E 023°35'0 0.0
2015-Jan-21 03:32N 37°57' E 023°35'0 0.0
2015-Jan-21 02:32N 37°57' E 023°35'0 0.0
2015-Jan-21 01:32N 37°57' E 023°35'0 0.0
2015-Jan-21 00:32N 37°57' E 023°35'0 0.0
2015-Jan-20 23:32N 37°57' E 023°35'0 0.0
2015-Jan-20 22:32N 37°57' E 023°35'0 0.0
2015-Jan-20 21:32N 37°57' E 023°35'0 0.0
2015-Jan-20 20:32N 37°57' E 023°35'0 0.0
2015-Jan-20 19:32N 37°57' E 023°35'0 0.0
2015-Jan-20 18:32N 37°57' E 023°35'0 0.0
2015-Jan-20 17:33N 37°57' E 023°35'0 0.0
2015-Jan-20 16:32N 37°57' E 023°35'0 0.0
2015-Jan-20 15:32N 37°57' E 023°35'0 0.0
2015-Jan-20 14:32N 37°57' E 023°35'0 0.0
2015-Jan-20 13:32N 37°57' E 023°35'0 0.0
2015-Jan-20 12:32N 37°57' E 023°35'0 0.0
2015-Jan-20 11:32N 37°57' E 023°35'0 0.0
2015-Jan-20 10:31N 37°57' E 023°35'0 0.0
2015-Jan-20 09:32N 37°57' E 023°35'0 0.0
2015-Jan-20 08:32N 37°57' E 023°35'0 0.0
2015-Jan-20 07:32N 37°57' E 023°35'0 0.0
2015-Jan-20 06:32N 37°57' E 023°35'0 0.0
2015-Jan-20 05:32N 37°57' E 023°35'0 0.0
2015-Jan-20 04:31N 37°57' E 023°35'0 0.0
2015-Jan-20 03:26N 37°57' E 023°35'0 0.0
2015-Jan-20 02:20N 37°57' E 023°35'0 0.0
2015-Jan-20 01:23N 37°57' E 023°35'0 0.0
2015-Jan-20 00:32N 37°57' E 023°35'0 0.0
2015-Jan-19 23:33N 37°57' E 023°35'2 2.1
2015-Jan-19 22:33N 37°55' E 023°35'6 6.3
2015-Jan-19 21:33N 37°50' E 023°31'8 8.4
2015-Jan-19 20:33N 37°51' E 023°20'2 0.0
2015-Jan-18 00:10N 37°52' E 023°19'6 9.3
2015-Jan-17 23:33N 37°51' E 023°26'9 9.0
2015-Jan-17 22:34N 37°50' E 023°37'8 8.5
2015-Jan-17 21:34N 37°43' E 023°43'10 9.1
2015-Jan-17 20:27N 37°34' E 023°47'  
Track history (hours):
 
Tides and Currents Weather Stations Pressure Air Temp Water Temp Dewpoint Dewpoint Depression Visibility Wind Speed Wind Dir Waves Ship Positions

Souda

Last reported at 2015-Jan-25 07:20 UTC. Time now 2015-Jan-26 08:26 UTC.
Position N 37°24' E 023°29'.

Length 88 m; draft 6.6 m.

Type: Tanker. MMSI: 241109000.

Date/timePositionNaut miles runAvg speedWind from/ knotsBaromVisibWave heightAir tempDewpointWater temp
2015-Jan-25 07:20N 37°24' E 023°29'1 0.0
2015-Jan-23 11:33N 37°24' E 023°28'8 7.8
2015-Jan-23 10:33N 37°25' E 023°37'7 6.5
2015-Jan-23 09:30N 37°32' E 023°41'7 7.5
2015-Jan-23 08:33N 37°38' E 023°38'8 7.6
2015-Jan-23 07:34N 37°46' E 023°36'7 6.9
2015-Jan-23 06:33N 37°48' E 023°28'0 0.2
2015-Jan-23 05:33N 37°48' E 023°28'0 0.0
2015-Jan-23 04:34N 37°48' E 023°28'0 0.0
2015-Jan-23 03:33N 37°48' E 023°28'0 0.0
2015-Jan-23 02:33N 37°48' E 023°28'0 0.0
2015-Jan-23 01:33N 37°48' E 023°28'0 0.0
2015-Jan-23 00:34N 37°48' E 023°28'0 0.0
2015-Jan-22 23:34N 37°48' E 023°28'3 3.4
2015-Jan-22 22:33N 37°48' E 023°32'3 3.1
2015-Jan-22 21:34N 37°50' E 023°29'8 8.0
2015-Jan-22 20:34N 37°51' E 023°19'4 0.1
2015-Jan-21 07:33N 37°51' E 023°23'9 8.8
2015-Jan-21 06:33N 37°52' E 023°34'6 5.5
2015-Jan-21 05:32N 37°57' E 023°35'0 0.0
2015-Jan-21 04:32N 37°57' E 023°35'0 0.0
2015-Jan-21 03:32N 37°57' E 023°35'0 0.0
2015-Jan-21 02:32N 37°57' E 023°35'0 0.0
2015-Jan-21 01:32N 37°57' E 023°35'0 0.0
2015-Jan-21 00:32N 37°57' E 023°35'0 0.0
2015-Jan-20 23:32N 37°57' E 023°35'0 0.0
2015-Jan-20 22:32N 37°57' E 023°35'0 0.0
2015-Jan-20 21:32N 37°57' E 023°35'0 0.0
2015-Jan-20 20:32N 37°57' E 023°35'0 0.0
2015-Jan-20 19:32N 37°57' E 023°35'0 0.0
2015-Jan-20 18:32N 37°57' E 023°35'0 0.0
2015-Jan-20 17:33N 37°57' E 023°35'0 0.0
2015-Jan-20 16:32N 37°57' E 023°35'0 0.0
2015-Jan-20 15:32N 37°57' E 023°35'0 0.0
2015-Jan-20 14:32N 37°57' E 023°35'0 0.0
2015-Jan-20 13:32N 37°57' E 023°35'0 0.0
2015-Jan-20 12:32N 37°57' E 023°35'0 0.0
2015-Jan-20 11:32N 37°57' E 023°35'0 0.0
2015-Jan-20 10:31N 37°57' E 023°35'0 0.0
2015-Jan-20 09:32N 37°57' E 023°35'0 0.0
2015-Jan-20 08:32N 37°57' E 023°35'0 0.0
2015-Jan-20 07:32N 37°57' E 023°35'0 0.0
2015-Jan-20 06:32N 37°57' E 023°35'0 0.0
2015-Jan-20 05:32N 37°57' E 023°35'0 0.0
2015-Jan-20 04:31N 37°57' E 023°35'0 0.0
2015-Jan-20 03:26N 37°57' E 023°35'0 0.0
2015-Jan-20 02:20N 37°57' E 023°35'0 0.0
2015-Jan-20 01:23N 37°57' E 023°35'0 0.0
2015-Jan-20 00:32N 37°57' E 023°35'0 0.0
2015-Jan-19 23:33N 37°57' E 023°35'2 2.1
2015-Jan-19 22:33N 37°55' E 023°35'6 6.3
2015-Jan-19 21:33N 37°50' E 023°31'8 8.4
2015-Jan-19 20:33N 37°51' E 023°20'2 0.0
2015-Jan-18 00:10N 37°52' E 023°19'6 9.3
2015-Jan-17 23:33N 37°51' E 023°26'9 9.0
2015-Jan-17 22:34N 37°50' E 023°37'8 8.5
2015-Jan-17 21:34N 37°43' E 023°43'10 9.1
2015-Jan-17 20:27N 37°34' E 023°47'  

Dump ship's entire track history